Hebron, Louisiana
Current Conditions -  °F | °C
As of 2:15 PM on Monday 24 Nov 2014 (Local Time) from KRSN Reporting Station
Clear Clear  
Wind Chill: 61°   Ceiling: Unl
Heat Index: 61°   Visibility: 10mi
Dew Point: 30°   Wind: 9mph
Humidity: 31%   Direction: 300°WNW
Pressure: 30.01"   Gusts: 16mph
Location:  32.0547°N, 92.4144°W
Report Text: KRSN 242015Z AUTO 30008G14KT 270V350 10SM CLR 16/M01 A3001 RMK AO2 T01611011
Loading
Personal Weather Stations






























Interactive Weather Map New forecast layout! Learn more

10-Day Weather Forecast

Advertisements
Track Severe Weather on mobile